Time;durP1;ratioP1;P1;durP2;ratioP2;P2;SDS_P1;SDS_P2;PMS_P1;PMS_P2;Temp;Humidity;BMP_temperature;BMP_pressure;BME280_temperature;BME280_humidity;BME280_pressure;Samples;Min_cycle;Max_cycle;Signal;HPM_P1;HPM_P2
2022/11/26 00:00:41;;;;;;;4.34;3.94;;;;;;;6.18;77.94;101071.88;453007;117;922350;-77
2022/11/26 00:01:44;;;;;;;4.47;4.03;;;;;;;6.20;78.11;101082.53;453032;117;922522;-79
2022/11/26 00:02:48;;;;;;;3.62;3.32;;;;;;;6.21;77.98;101076.95;453030;117;922577;-76
2022/11/26 00:03:52;;;;;;;3.51;3.19;;;;;;;6.21;78.03;101068.83;452941;117;922536;-76
2022/11/26 00:04:56;;;;;;;3.56;3.31;;;;;;;6.22;78.08;101075.09;453000;117;922589;-76
2022/11/26 00:06:01;;;;;;;4.08;3.78;;;;;;;6.22;78.02;101069.68;452848;117;922533;-77
2022/11/26 00:07:05;;;;;;;4.40;4.01;;;;;;;6.21;78.01;101074.25;452791;117;930960;-77
2022/11/26 00:08:26;;;;;;;4.30;3.96;;;;;;;6.21;77.96;101066.12;452918;117;923053;-76
2022/11/26 00:09:58;;;;;;;4.34;3.96;;;;;;;6.34;78.07;101064.73;476960;109;947075;-77
2022/11/26 00:11:02;;;;;;;3.86;3.48;;;;;;;6.21;78.04;101068.83;467189;112;922545;-75
2022/11/26 00:12:19;;;;;;;4.76;4.36;;;;;;;6.19;77.95;101070.86;467115;111;923606;-75
2022/11/26 00:13:26;;;;;;;4.28;3.98;;;;;;;6.18;78.03;101063.75;463377;113;923020;-76
2022/11/26 00:14:30;;;;;;;4.30;3.92;;;;;;;6.18;78.05;101062.91;464259;113;922644;-76
2022/11/26 00:15:33;;;;;;;4.14;3.84;;;;;;;6.17;78.03;101067.50;465644;113;923192;-77
2022/11/26 00:16:36;;;;;;;3.87;3.56;;;;;;;6.17;78.00;101072.07;465893;113;922468;-76
2022/11/26 00:17:39;;;;;;;4.29;3.86;;;;;;;6.16;78.01;101082.05;465726;113;922508;-76
2022/11/26 00:18:43;;;;;;;3.72;3.42;;;;;;;6.16;78.08;101071.22;465676;113;922463;-76
2022/11/26 00:19:46;;;;;;;4.04;3.74;;;;;;;6.14;78.02;101073.25;465574;113;922743;-76
2022/11/26 00:20:55;;;;;;;3.81;3.51;;;;;;;6.13;78.01;101074.26;465991;113;922441;-76
2022/11/26 00:21:59;;;;;;;3.58;3.28;;;;;;;6.14;78.04;101069.69;465747;113;922481;-76
2022/11/26 00:23:03;;;;;;;2.99;2.79;;;;;;;6.13;77.98;101074.26;464454;113;922846;-77
2022/11/26 00:24:13;;;;;;;3.39;3.12;;;;;;;6.14;78.03;101069.69;464759;113;923383;-78
2022/11/26 00:25:19;;;;;;;3.37;3.17;;;;;;;6.14;78.15;101070.54;463626;114;923018;-77
2022/11/26 00:26:30;;;;;;;3.44;2.94;;;;;;;6.26;78.10;101076.42;477177;110;947341;-77
2022/11/26 00:27:33;;;;;;;3.59;3.29;;;;;;;6.13;77.97;101071.55;465611;114;922441;-76
2022/11/26 00:28:38;;;;;;;2.92;2.71;;;;;;;6.12;77.91;101074.45;457623;115;922693;-76
2022/11/26 00:29:41;;;;;;;2.89;2.69;;;;;;;6.11;77.84;101073.61;457568;116;922683;-75
2022/11/26 00:30:44;;;;;;;2.94;2.61;;;;;;;6.08;77.87;101071.23;457639;116;922887;-77
2022/11/26 00:31:48;;;;;;;2.86;2.66;;;;;;;6.08;78.06;101081.21;457537;115;923008;-76
2022/11/26 00:32:52;;;;;;;3.06;2.81;;;;;;;6.07;77.96;101076.81;457632;115;922545;-76
2022/11/26 00:33:55;;;;;;;2.92;2.61;;;;;;;6.05;78.05;101074.30;457585;116;922548;-76
2022/11/26 00:34:58;;;;;;;3.05;2.52;;;;;;;6.04;78.05;101071.76;457682;116;922511;-76
2022/11/26 00:36:17;;;;;;;2.69;2.49;;;;;;;6.04;78.15;101071.76;457644;116;922534;-76
2022/11/26 00:37:27;;;;;;;2.66;2.46;;;;;;;6.04;78.16;101071.76;456933;115;922834;-79
2022/11/26 00:38:31;;;;;;;2.78;2.52;;;;;;;6.06;78.11;101080.56;455966;115;922815;-76
2022/11/26 00:39:35;;;;;;;2.60;2.40;;;;;;;6.05;78.08;101082.42;457575;116;922643;-75
2022/11/26 00:40:40;;;;;;;2.16;2.03;;;;;;;6.05;78.21;101085.13;457461;115;922968;-76
2022/11/26 00:41:47;;;;;;;3.27;2.65;;;;;;;6.04;78.25;101078.02;457493;115;922497;-76
2022/11/26 00:42:50;;;;;;;2.42;2.24;;;;;;;6.05;78.14;101086.98;457343;115;930316;-75
2022/11/26 00:43:54;;;;;;;2.84;2.55;;;;;;;6.05;78.19;101082.42;457529;116;923043;-74
2022/11/26 00:44:57;;;;;;;2.50;2.30;;;;;;;6.05;78.12;101085.13;457619;116;922468;-76
2022/11/26 00:46:00;;;;;;;2.50;2.30;;;;;;;6.05;78.12;101084.28;457618;116;922839;-76
2022/11/26 00:47:03;;;;;;;3.26;2.89;;;;;;;6.04;78.14;101083.44;457631;116;922856;-76
2022/11/26 00:48:06;;;;;;;3.18;2.62;;;;;;;6.05;78.20;101084.28;457617;115;923052;-76
2022/11/26 00:49:09;;;;;;;2.93;2.73;;;;;;;6.04;78.24;101085.30;457653;116;922910;-74
2022/11/26 00:50:18;;;;;;;2.28;2.06;;;;;;;6.05;78.14;101092.40;457681;116;922575;-77
2022/11/26 00:51:26;;;;;;;1.94;1.82;;;;;;;6.04;78.10;101096.12;457462;116;922541;-76
2022/11/26 00:52:33;;;;;;;2.43;2.23;;;;;;;6.04;78.15;101098.83;457470;116;922435;-76
2022/11/26 00:53:36;;;;;;;2.22;2.05;;;;;;;6.02;78.22;101095.44;457450;116;922709;-75
2022/11/26 00:54:40;;;;;;;2.52;2.27;;;;;;;6.03;78.25;101095.27;457654;116;922493;-76
2022/11/26 00:55:48;;;;;;;2.16;2.02;;;;;;;6.04;78.34;101093.41;457622;115;922856;-75
2022/11/26 00:56:51;;;;;;;2.18;1.93;;;;;;;6.04;78.28;101096.97;457501;116;922497;-75
2022/11/26 00:57:56;;;;;;;3.10;2.15;;;;;;;6.05;78.22;101089.70;458248;116;922258;-76
2022/11/26 00:58:59;;;;;;;2.36;2.16;;;;;;;6.06;78.28;101089.53;458423;116;922642;-74
2022/11/26 01:00:06;;;;;;;2.07;1.87;;;;;;;6.07;78.37;101083.07;458543;116;922223;-76
2022/11/26 01:01:12;;;;;;;2.29;2.08;;;;;;;6.09;78.23;101093.73;458424;114;922394;-77
2022/11/26 01:02:15;;;;;;;2.51;2.31;;;;;;;6.09;78.14;101089.17;458152;116;922714;-76
2022/11/26 01:03:19;;;;;;;2.17;2.07;;;;;;;6.09;78.09;101086.46;458429;116;922761;-76
2022/11/26 01:04:22;;;;;;;2.75;2.37;;;;;;;6.07;77.97;101077.66;458084;116;922127;-76
2022/11/26 01:05:32;;;;;;;2.51;2.31;;;;;;;6.08;77.97;101081.21;458268;116;922386;-75
2022/11/26 01:06:39;;;;;;;2.29;2.12;;;;;;;6.06;77.84;101081.41;458082;116;922591;-76
2022/11/26 01:07:43;;;;;;;2.13;1.93;;;;;;;6.02;77.72;101076.48;458194;114;922001;-76
2022/11/26 01:08:47;;;;;;;2.24;2.03;;;;;;;5.99;77.87;101087.67;458250;116;922195;-76
2022/11/26 01:09:50;;;;;;;2.13;1.95;;;;;;;5.98;78.02;101088.69;458295;116;930589;-76
2022/11/26 01:10:53;;;;;;;2.03;1.90;;;;;;;5.98;78.01;101088.69;458239;116;930156;-76
2022/11/26 01:11:57;;;;;;;2.79;2.01;;;;;;;5.97;77.97;101082.42;458390;116;922684;-76
2022/11/26 01:13:00;;;;;;;2.15;1.99;;;;;;;5.96;78.04;101082.59;458401;115;922235;-75
2022/11/26 01:14:04;;;;;;;1.93;1.82;;;;;;;5.96;78.07;101082.59;458338;116;929990;-76
2022/11/26 01:15:07;;;;;;;2.14;1.96;;;;;;;5.96;78.09;101082.59;458446;115;922258;-76
2022/11/26 01:16:28;;;;;;;2.17;2.04;;;;;;;5.93;77.93;101083.80;458235;116;930119;-76
2022/11/26 01:17:31;;;;;;;2.16;2.02;;;;;;;5.90;78.04;101084.13;458278;116;930201;-76
2022/11/26 01:18:34;;;;;;;2.52;2.33;;;;;;;5.89;78.19;101087.03;458566;116;922166;-76
2022/11/26 01:19:38;;;;;;;2.25;2.04;;;;;;;5.88;78.36;101075.36;458419;116;922226;-74
2022/11/26 01:20:41;;;;;;;2.27;2.08;;;;;;;5.89;78.40;101089.73;458597;116;922680;-75
2022/11/26 01:21:44;;;;;;;2.61;2.41;;;;;;;5.90;78.54;101078.71;458465;116;922882;-75
2022/11/26 01:22:50;;;;;;;2.29;2.12;;;;;;;5.91;78.45;101085.82;458310;115;922521;-76
2022/11/26 01:23:53;;;;;;;2.62;2.41;;;;;;;5.93;78.44;101082.95;458313;116;922797;-77
2022/11/26 01:24:56;;;;;;;2.93;2.60;;;;;;;5.92;78.36;101079.39;458417;116;922271;-76
2022/11/26 01:25:59;;;;;;;2.41;2.22;;;;;;;5.91;78.33;101082.27;457845;114;922155;-75
2022/11/26 01:27:08;;;;;;;2.53;2.22;;;;;;;5.91;78.45;101080.41;452498;117;922271;-77
2022/11/26 01:28:14;;;;;;;2.50;2.09;;;;;;;5.91;78.51;101083.11;456291;116;922105;-76
2022/11/26 01:29:18;;;;;;;2.72;2.52;;;;;;;5.91;78.38;101077.70;457288;116;922149;-79
2022/11/26 01:30:25;;;;;;;2.56;2.36;;;;;;;5.91;78.39;101088.53;457227;116;922202;-78
2022/11/26 01:31:29;;;;;;;2.83;2.63;;;;;;;5.90;78.37;101078.71;457181;116;930102;-78
2022/11/26 01:32:32;;;;;;;2.36;2.22;;;;;;;5.90;78.51;101076.00;457304;116;922552;-75
2022/11/26 01:33:35;;;;;;;2.85;2.65;;;;;;;5.90;78.39;101086.83;456679;116;922449;-76
2022/11/26 01:34:39;;;;;;;2.57;2.37;;;;;;;5.91;78.45;101088.53;456737;116;922782;-77
2022/11/26 01:35:42;;;;;;;2.42;2.22;;;;;;;5.91;78.50;101077.70;456661;116;922703;-76
2022/11/26 01:36:45;;;;;;;3.01;2.72;;;;;;;5.93;78.67;101080.24;456651;116;930334;-77
2022/11/26 01:37:49;;;;;;;2.51;2.33;;;;;;;5.95;78.72;101086.34;456572;116;922458;-77
2022/11/26 01:38:54;;;;;;;2.64;2.44;;;;;;;5.96;78.66;101085.30;456482;116;922744;-75
2022/11/26 01:39:57;;;;;;;2.64;2.44;;;;;;;5.96;78.68;101091.56;456286;116;930282;-76
2022/11/26 01:41:07;;;;;;;2.75;2.55;;;;;;;5.97;78.66;101086.99;456612;116;922428;-76
2022/11/26 01:42:26;;;;;;;2.45;2.25;;;;;;;5.98;78.74;101092.24;456335;116;922532;-76
2022/11/26 01:43:41;;;;;;;2.45;2.27;;;;;;;5.98;78.73;101086.83;455949;116;922897;-77
2022/11/26 01:44:44;;;;;;;2.30;2.10;;;;;;;5.98;78.71;101092.24;456397;116;922482;-77
2022/11/26 01:45:47;;;;;;;2.01;1.91;;;;;;;5.96;78.74;101094.27;456497;116;922515;-77
2022/11/26 01:46:52;;;;;;;2.71;2.51;;;;;;;5.95;78.64;101095.31;456509;116;930213;-75
2022/11/26 01:47:55;;;;;;;2.59;2.08;;;;;;;5.94;78.70;101096.32;456490;116;922497;-76
2022/11/26 01:49:19;;;;;;;2.64;2.44;;;;;;;5.94;78.70;101096.32;456582;116;922898;-75
2022/11/26 01:50:35;;;;;;;2.23;2.03;;;;;;;5.94;78.71;101093.61;456275;116;922576;-74
2022/11/26 01:51:39;;;;;;;2.57;2.37;;;;;;;5.94;78.59;101107.14;456360;116;922453;-76
2022/11/26 01:52:42;;;;;;;2.21;2.01;;;;;;;5.93;78.69;101102.74;456518;116;923200;-77
2022/11/26 01:53:54;;;;;;;2.31;2.10;;;;;;;5.93;78.59;101094.63;456543;116;922913;-78
2022/11/26 01:54:58;;;;;;;2.27;2.07;;;;;;;5.91;78.48;101099.35;456376;116;922612;-76
2022/11/26 01:56:04;;;;;;;2.46;2.09;;;;;;;5.90;78.62;101103.06;456475;116;922521;-75
2022/11/26 01:57:20;;;;;;;2.43;2.24;;;;;;;5.90;78.52;101094.13;454063;116;930361;-77
2022/11/26 01:58:30;;;;;;;2.21;1.99;;;;;;;5.89;78.59;101095.99;448995;117;922860;-76
2022/11/26 01:59:38;;;;;;;2.07;1.89;;;;;;;5.86;78.52;101091.72;449071;118;922928;-76
2022/11/26 02:00:42;;;;;;;2.14;1.95;;;;;;;5.85;78.39;101102.70;449381;118;922474;-78
2022/11/26 02:01:47;;;;;;;1.89;1.79;;;;;;;5.85;78.43;101102.70;449486;118;922856;-75
2022/11/26 02:02:51;;;;;;;2.37;2.17;;;;;;;5.82;78.41;101106.62;449280;117;930793;-76
2022/11/26 02:04:12;;;;;;;2.46;2.26;;;;;;;5.82;78.49;101095.80;449598;118;923007;-76
2022/11/26 02:05:24;;;;;;;2.28;2.13;;;;;;;5.85;78.54;101105.41;449396;118;922622;-77
2022/11/26 02:06:33;;;;;;;2.39;2.19;;;;;;;5.88;78.45;101106.98;448910;118;922696;-77
2022/11/26 02:07:36;;;;;;;2.28;2.08;;;;;;;5.85;78.39;101100.00;449337;117;922989;-77
2022/11/26 02:08:40;;;;;;;2.15;1.98;;;;;;;5.86;78.38;101107.95;449454;118;922521;-76
2022/11/26 02:09:43;;;;;;;2.16;1.92;;;;;;;5.86;78.36;101107.11;449431;118;922504;-77
2022/11/26 02:10:47;;;;;;;2.00;1.81;;;;;;;5.86;78.42;101110.66;449385;118;930360;-77
2022/11/26 02:11:50;;;;;;;2.44;2.24;;;;;;;5.85;78.32;101100.85;449519;118;923310;-77
2022/11/26 02:12:53;;;;;;;2.16;1.79;;;;;;;5.84;78.37;101101.86;449533;117;922788;-77
2022/11/26 02:14:02;;;;;;;2.36;2.16;;;;;;;5.84;78.41;101109.16;449533;118;923116;-76
2022/11/26 02:15:07;;;;;;;2.54;2.34;;;;;;;5.85;78.47;101105.41;448970;118;922794;-77
2022/11/26 02:16:22;;;;;;;2.46;2.17;;;;;;;5.85;78.48;101095.44;449430;118;922411;-77
2022/11/26 02:17:44;;;;;;;2.14;1.81;;;;;;;5.88;78.61;101099.71;449363;118;922478;-76
2022/11/26 02:18:57;;;;;;;1.99;1.85;;;;;;;5.89;78.57;101103.27;449331;118;922596;-75
2022/11/26 02:20:35;;;;;;;2.39;1.88;;;;;;;5.89;78.55;101106.81;432855;122;923482;-77
2022/11/26 02:21:42;;;;;;;2.21;1.96;;;;;;;5.89;78.50;101103.27;449277;118;922472;-76
2022/11/26 02:23:08;;;;;;;1.82;1.72;;;;;;;5.88;78.53;101102.41;448776;117;922846;-76
2022/11/26 02:24:21;;;;;;;2.18;1.98;;;;;;;5.89;78.59;101111.38;448295;116;922876;-76
2022/11/26 02:25:36;;;;;;;2.08;1.89;;;;;;;5.90;78.40;101113.08;451802;117;922944;-76
2022/11/26 02:27:13;;;;;;;2.34;2.14;;;;;;;5.89;78.32;101100.55;452048;114;922657;-76
2022/11/26 02:28:53;;;;;;;2.22;2.04;;;;;;;5.96;78.51;101105.09;470398;110;946787;-76
2022/11/26 02:30:05;;;;;;;2.53;2.33;;;;;;;5.83;78.50;101105.61;457468;116;922630;-78
2022/11/26 02:31:17;;;;;;;2.49;2.29;;;;;;;5.84;78.53;101111.87;457432;116;922925;-75
2022/11/26 02:32:24;;;;;;;3.14;2.38;;;;;;;5.82;78.48;101100.36;457430;116;922542;-76
2022/11/26 02:33:46;;;;;;;3.37;2.47;;;;;;;5.82;78.43;101108.48;457257;114;922966;-76
2022/11/26 02:35:08;;;;;;;2.34;2.14;;;;;;;5.81;78.34;101104.08;457124;115;923525;-76
2022/11/26 02:36:20;;;;;;;2.54;2.18;;;;;;;5.78;78.14;101110.69;456769;115;923008;-76
2022/11/26 02:37:42;;;;;;;2.53;2.37;;;;;;;5.73;78.15;101104.92;457298;115;922846;-76
2022/11/26 02:38:45;;;;;;;2.13;1.95;;;;;;;5.71;78.31;101100.71;457068;115;923209;-75
2022/11/26 02:39:50;;;;;;;2.89;2.02;;;;;;;5.71;78.38;101116.95;457670;116;922604;-76
2022/11/26 02:40:53;;;;;;;2.13;2.03;;;;;;;5.70;78.34;101105.27;457445;116;922441;-76
2022/11/26 02:42:01;;;;;;;2.73;2.53;;;;;;;5.72;78.42;101110.52;457663;116;923387;-75
2022/11/26 02:43:04;;;;;;;2.55;2.34;;;;;;;5.72;78.45;101111.37;457448;116;922839;-77
2022/11/26 02:44:07;;;;;;;2.70;2.26;;;;;;;5.74;78.44;101103.91;457660;116;922848;-76
2022/11/26 02:45:14;;;;;;;2.09;1.99;;;;;;;5.77;78.40;101108.15;457666;116;922542;-76
2022/11/26 02:46:19;;;;;;;2.07;1.97;;;;;;;5.78;78.36;101112.55;457482;116;922497;-76
2022/11/26 02:47:26;;;;;;;2.97;2.68;;;;;;;5.78;78.48;101113.39;457442;116;922990;-76
2022/11/26 02:48:32;;;;;;;3.41;2.56;;;;;;;5.79;78.30;101112.36;457439;114;923003;-75
2022/11/26 02:49:37;;;;;;;2.57;2.37;;;;;;;5.81;78.40;101125.72;457512;116;922543;-76
2022/11/26 02:51:00;;;;;;;2.45;2.26;;;;;;;5.83;78.34;101112.88;457523;115;923010;-76
2022/11/26 02:52:05;;;;;;;2.32;2.16;;;;;;;5.84;78.37;101119.98;457404;116;930329;-76
2022/11/26 02:53:11;;;;;;;3.08;2.47;;;;;;;5.88;78.42;101115.95;457391;114;923139;-75
2022/11/26 02:54:15;;;;;;;2.61;2.41;;;;;;;5.89;78.37;101119.50;457442;116;922489;-76
2022/11/26 02:55:20;;;;;;;2.52;2.33;;;;;;;5.90;78.19;101118.49;457573;116;922779;-76
2022/11/26 02:56:26;;;;;;;3.03;2.83;;;;;;;5.90;78.18;101124.72;457458;115;922793;-76
2022/11/26 02:57:33;;;;;;;2.84;2.51;;;;;;;5.92;78.17;101116.44;457448;113;922814;-77
2022/11/26 02:58:36;;;;;;;2.55;2.35;;;;;;;5.92;78.24;101119.14;457435;116;922970;-76
2022/11/26 02:59:40;;;;;;;2.82;2.62;;;;;;;5.94;78.26;101120.67;457575;116;922858;-76
2022/11/26 03:00:47;;;;;;;2.70;2.50;;;;;;;5.96;78.24;101115.91;457517;115;930434;-76
2022/11/26 03:02:08;;;;;;;2.82;2.18;;;;;;;5.98;78.21;101121.17;457472;116;922542;-77
2022/11/26 03:03:21;;;;;;;2.67;2.47;;;;;;;5.97;78.00;101123.03;457388;114;923440;-75
2022/11/26 03:04:23;;;;;;;2.96;2.23;;;;;;;5.96;77.93;101124.03;455825;115;923023;-77
2022/11/26 03:05:29;;;;;;;2.46;2.26;;;;;;;5.95;78.04;101118.82;457488;116;923079;-76
2022/11/26 03:06:34;;;;;;;2.95;2.75;;;;;;;5.93;77.91;101124.39;457427;116;922967;-76
2022/11/26 03:07:38;;;;;;;2.60;2.22;;;;;;;5.92;77.90;101124.55;457434;114;922429;-75
2022/11/26 03:08:44;;;;;;;2.39;2.22;;;;;;;5.91;77.92;101122.86;457535;116;930452;-75
2022/11/26 03:09:52;;;;;;;2.39;2.19;;;;;;;5.91;78.00;101122.86;457464;116;922799;-77
2022/11/26 03:10:56;;;;;;;2.59;2.36;;;;;;;5.90;77.88;101123.91;457174;115;922967;-76
2022/11/26 03:11:59;;;;;;;2.53;2.33;;;;;;;5.89;77.93;101122.20;457656;116;922521;-76
2022/11/26 03:13:02;;;;;;;2.34;2.14;;;;;;;5.89;77.91;101127.63;456438;115;922632;-76
2022/11/26 03:14:05;;;;;;;2.31;2.11;;;;;;;5.89;77.89;101133.03;455935;116;922478;-78
2022/11/26 03:15:09;;;;;;;2.84;2.60;;;;;;;5.89;77.95;101133.88;455930;116;922540;-76
2022/11/26 03:16:12;;;;;;;2.66;2.46;;;;;;;5.89;78.04;101131.17;455863;116;922504;-77
2022/11/26 03:17:16;;;;;;;2.87;2.66;;;;;;;5.89;77.98;101133.88;455928;116;922937;-77
2022/11/26 03:18:19;;;;;;;2.19;2.02;;;;;;;5.89;78.11;101130.33;455805;116;922482;-77
2022/11/26 03:19:22;;;;;;;2.92;2.65;;;;;;;5.89;77.92;101138.45;455842;116;930285;-77
2022/11/26 03:20:25;;;;;;;2.69;2.49;;;;;;;5.88;77.92;101134.89;451854;116;922952;-76
2022/11/26 03:21:33;;;;;;;2.45;2.25;;;;;;;5.86;77.82;101140.44;447765;118;922527;-75
2022/11/26 03:22:37;;;;;;;2.62;2.43;;;;;;;5.85;77.84;101135.19;447573;116;922501;-77
2022/11/26 03:23:40;;;;;;;2.37;2.16;;;;;;;5.83;77.78;101140.78;452171;115;922648;-78
2022/11/26 03:24:46;;;;;;;2.73;2.44;;;;;;;5.82;77.76;101139.09;457445;116;922635;-78
2022/11/26 03:25:49;;;;;;;2.83;2.63;;;;;;;5.81;77.80;101141.96;457658;116;922506;-78
2022/11/26 03:26:52;;;;;;;2.47;2.24;;;;;;;5.79;77.67;101139.41;457662;115;923009;-77
2022/11/26 03:27:56;;;;;;;2.77;2.49;;;;;;;5.77;77.69;101140.62;457624;114;923010;-77
2022/11/26 03:28:59;;;;;;;2.32;2.12;;;;;;;5.73;77.53;101137.38;457261;115;922750;-76
2022/11/26 03:30:03;;;;;;;2.49;2.32;;;;;;;5.72;77.67;101140.28;457683;115;922395;-76
2022/11/26 03:31:06;;;;;;;2.50;2.31;;;;;;;5.70;77.68;101143.15;457679;116;922478;-77
2022/11/26 03:32:09;;;;;;;2.05;1.95;;;;;;;5.69;77.60;101143.31;457801;116;922569;-77
2022/11/26 03:33:12;;;;;;;2.39;2.21;;;;;;;5.69;77.77;101143.31;457657;114;922481;-76
2022/11/26 03:34:15;;;;;;;2.47;2.27;;;;;;;5.69;77.75;101146.87;457779;116;922996;-76
2022/11/26 03:35:19;;;;;;;2.15;1.96;;;;;;;5.69;77.89;101137.90;457751;116;922418;-77
2022/11/26 03:36:22;;;;;;;2.65;2.44;;;;;;;5.71;77.86;101144.00;457656;116;922900;-76
2022/11/26 03:37:25;;;;;;;2.32;2.12;;;;;;;5.71;77.95;101144.84;457761;116;922565;-75
2022/11/26 03:38:28;;;;;;;2.12;2.02;;;;;;;5.71;77.88;101141.30;457701;114;922642;-76
2022/11/26 03:39:32;;;;;;;2.14;2.03;;;;;;;5.73;77.88;101145.50;457569;116;922492;-77
2022/11/26 03:40:35;;;;;;;2.47;2.33;;;;;;;5.72;77.85;101151.11;457616;115;922961;-76
2022/11/26 03:41:41;;;;;;;1.71;1.60;;;;;;;5.74;77.95;101149.91;457555;116;922698;-77
2022/11/26 03:42:44;;;;;;;1.73;1.61;;;;;;;5.74;77.82;101154.47;457432;114;922566;-76
2022/11/26 03:43:48;;;;;;;1.94;1.84;;;;;;;5.74;77.88;101157.17;457505;116;922518;-76
2022/11/26 03:44:51;;;;;;;2.24;2.04;;;;;;;5.72;77.72;101159.22;457498;115;930330;-76
2022/11/26 03:45:54;;;;;;;1.81;1.71;;;;;;;5.69;77.62;101152.28;457645;116;922886;-77
2022/11/26 03:46:57;;;;;;;1.70;1.60;;;;;;;5.68;77.66;101157.88;457557;115;922526;-75
2022/11/26 03:48:01;;;;;;;1.95;1.85;;;;;;;5.68;77.70;101155.17;457583;114;930276;-77
2022/11/26 03:49:04;;;;;;;1.72;1.62;;;;;;;5.67;77.70;101156.19;457621;116;922465;-77
2022/11/26 03:50:08;;;;;;;1.65;1.53;;;;;;;5.67;77.74;101158.89;457579;115;923466;-76
2022/11/26 03:51:11;;;;;;;1.74;1.64;;;;;;;5.66;77.84;101157.19;457570;116;922947;-76
2022/11/26 03:52:14;;;;;;;1.86;1.67;;;;;;;5.66;77.81;101165.30;457618;115;930339;-76
2022/11/26 03:53:18;;;;;;;1.52;1.42;;;;;;;5.66;77.89;101162.60;457671;116;922556;-76
2022/11/26 03:54:21;;;;;;;1.77;1.66;;;;;;;5.67;77.95;101156.19;457650;115;922538;-76
2022/11/26 03:55:24;;;;;;;1.45;1.35;;;;;;;5.68;77.93;101155.98;457652;116;922563;-76
2022/11/26 03:56:28;;;;;;;1.65;1.55;;;;;;;5.69;78.03;101164.95;457653;116;922500;-76
2022/11/26 03:57:31;;;;;;;1.72;1.62;;;;;;;5.70;77.94;101166.66;452095;114;922654;-76
2022/11/26 03:58:34;;;;;;;1.34;1.26;;;;;;;5.70;77.91;101167.50;449783;116;930273;-77
2022/11/26 03:59:37;;;;;;;1.62;1.52;;;;;;;5.70;77.84;101164.80;449761;117;922861;-77
2022/11/26 04:00:40;;;;;;;1.64;1.54;;;;;;;5.71;77.95;101168.35;449929;117;922585;-76
2022/11/26 04:01:44;;;;;;;1.47;1.37;;;;;;;5.71;77.85;101168.35;450254;116;922492;-76
2022/11/26 04:02:47;;;;;;;1.76;1.66;;;;;;;5.73;77.85;101175.27;447849;116;922730;-75
2022/11/26 04:03:50;;;;;;;1.98;1.84;;;;;;;5.71;77.69;101161.08;447832;118;922969;-76
2022/11/26 04:04:53;;;;;;;2.04;1.90;;;;;;;5.71;77.76;101173.77;447874;118;922606;-76
2022/11/26 04:05:56;;;;;;;1.60;1.49;;;;;;;5.70;77.75;101170.20;447873;118;922557;-76
2022/11/26 04:06:59;;;;;;;1.97;1.86;;;;;;;5.69;77.61;101176.63;447833;118;922938;-75
2022/11/26 04:08:03;;;;;;;1.67;1.57;;;;;;;5.68;77.74;101168.70;447810;118;923464;-77
2022/11/26 04:09:06;;;;;;;1.54;1.42;;;;;;;5.69;77.77;101170.37;447853;118;923013;-77
2022/11/26 04:10:10;;;;;;;1.80;1.70;;;;;;;5.70;77.76;101170.20;447861;118;922489;-75
2022/11/26 04:11:13;;;;;;;1.62;1.52;;;;;;;5.71;77.85;101169.20;447773;118;923507;-75
2022/11/26 04:12:16;;;;;;;1.54;1.46;;;;;;;5.73;77.76;101172.56;447787;118;922682;-75
2022/11/26 04:13:19;;;;;;;1.57;1.47;;;;;;;5.73;77.81;101167.15;455856;116;922607;-77
2022/11/26 04:14:23;;;;;;;2.19;1.72;;;;;;;5.75;77.78;101169.69;456004;116;922425;-77
2022/11/26 04:15:26;;;;;;;1.54;1.44;;;;;;;5.76;77.72;101165.98;456020;116;922479;-75
2022/11/26 04:16:29;;;;;;;1.57;1.47;;;;;;;5.76;77.69;101166.83;453391;116;922455;-76
2022/11/26 04:17:32;;;;;;;1.72;1.44;;;;;;;5.75;77.71;101167.84;445566;119;922565;-77
2022/11/26 04:18:36;;;;;;;1.95;1.85;;;;;;;5.75;77.63;101164.28;445538;119;922987;-76
2022/11/26 04:19:39;;;;;;;1.59;1.49;;;;;;;5.75;77.70;101170.55;445608;119;923070;-78
2022/11/26 04:20:42;;;;;;;1.79;1.64;;;;;;;5.74;77.75;101168.00;445522;119;922407;-76
2022/11/26 04:21:45;;;;;;;1.98;1.86;;;;;;;5.75;77.76;101172.40;445524;119;922973;-76
2022/11/26 04:22:48;;;;;;;2.69;1.54;;;;;;;5.76;77.83;101174.09;445541;117;922937;-76
2022/11/26 04:23:52;;;;;;;1.91;1.81;;;;;;;5.77;77.76;101167.67;445500;119;922525;-77
2022/11/26 04:24:55;;;;;;;1.88;1.78;;;;;;;5.77;77.77;101168.52;445589;119;922581;-76
2022/11/26 04:25:58;;;;;;;1.59;1.49;;;;;;;5.78;77.73;101172.92;445574;119;922601;-77
2022/11/26 04:27:01;;;;;;;1.67;1.57;;;;;;;5.77;77.80;101168.52;445542;119;922986;-75
2022/11/26 04:28:04;;;;;;;2.69;1.82;;;;;;;5.79;77.63;101171.03;445445;117;922775;-76
2022/11/26 04:29:07;;;;;;;1.87;1.76;;;;;;;5.77;77.57;101173.94;445545;119;922608;-76
2022/11/26 04:30:12;;;;;;;1.88;1.78;;;;;;;5.76;77.60;101174.95;445452;119;923116;-76
2022/11/26 04:31:16;;;;;;;2.31;2.18;;;;;;;5.76;77.54;101182.22;445416;119;922470;-75
2022/11/26 04:32:20;;;;;;;2.08;1.90;;;;;;;5.74;77.53;101176.96;445514;119;922895;-76
2022/11/26 04:33:25;;;;;;;2.06;1.87;;;;;;;5.75;77.49;101175.10;445527;119;922501;-76
2022/11/26 04:34:28;;;;;;;2.41;2.21;;;;;;;5.72;77.51;101178.16;445387;119;922487;-77
2022/11/26 04:35:31;;;;;;;2.20;1.98;;;;;;;5.74;77.62;101184.23;445466;119;922673;-76
2022/11/26 04:36:34;;;;;;;2.09;1.99;;;;;;;5.74;77.69;101176.11;445553;119;922521;-76
2022/11/26 04:37:37;;;;;;;1.82;1.72;;;;;;;5.74;77.58;101184.23;445578;119;922535;-76
2022/11/26 04:38:40;;;;;;;2.26;2.03;;;;;;;5.74;77.54;101184.23;445550;119;922995;-76
2022/11/26 04:39:43;;;;;;;1.99;1.89;;;;;;;5.72;77.60;101188.98;445547;119;922496;-76
2022/11/26 04:40:47;;;;;;;2.25;1.99;;;;;;;5.70;77.53;101186.44;445547;119;922444;-76
2022/11/26 04:41:50;;;;;;;2.05;1.89;;;;;;;5.69;77.60;101189.30;445482;119;922568;-77
2022/11/26 04:42:53;;;;;;;2.70;1.76;;;;;;;5.68;77.53;101183.05;445549;117;922807;-76
2022/11/26 04:43:56;;;;;;;2.49;2.29;;;;;;;5.66;77.62;101185.09;445555;119;922733;-78
2022/11/26 04:45:00;;;;;;;2.14;1.94;;;;;;;5.66;77.75;101184.24;445584;119;922802;-76
2022/11/26 04:46:03;;;;;;;1.96;1.79;;;;;;;5.66;77.60;101189.66;445444;119;922961;-75
2022/11/26 04:47:06;;;;;;;2.05;1.91;;;;;;;5.63;77.53;101185.41;445539;119;922775;-75
2022/11/26 04:48:09;;;;;;;2.08;1.85;;;;;;;5.63;77.59;101192.67;445514;117;922552;-76
2022/11/26 04:49:12;;;;;;;2.22;2.04;;;;;;;5.63;77.57;101187.27;445546;119;922963;-76
2022/11/26 04:50:16;;;;;;;2.51;2.30;;;;;;;5.62;77.58;101185.60;445542;119;922916;-76
2022/11/26 04:51:19;;;;;;;2.59;2.27;;;;;;;5.61;77.68;101189.31;445537;119;922696;-76
2022/11/26 04:52:22;;;;;;;2.14;2.02;;;;;;;5.63;77.79;101190.82;445513;119;922497;-77
2022/11/26 04:53:25;;;;;;;2.33;2.09;;;;;;;5.64;77.92;101189.81;445429;117;922865;-76
2022/11/26 04:54:29;;;;;;;2.33;2.15;;;;;;;5.66;77.94;101193.20;445474;119;922599;-78
2022/11/26 04:55:32;;;;;;;1.82;1.72;;;;;;;5.66;77.96;101193.20;445595;119;922572;-78
2022/11/26 04:56:35;;;;;;;2.45;2.24;;;;;;;5.67;77.86;101191.36;445575;119;922625;-76
2022/11/26 04:57:38;;;;;;;2.52;1.86;;;;;;;5.66;77.79;101192.36;439296;117;922960;-77
2022/11/26 04:58:41;;;;;;;2.38;2.07;;;;;;;5.66;77.78;101200.48;441079;120;922496;-75
2022/11/26 04:59:44;;;;;;;4.41;1.81;;;;;;;5.66;77.78;101197.77;441095;120;923492;-76
2022/11/26 05:00:48;;;;;;;2.84;2.08;;;;;;;5.65;77.69;101196.08;441077;120;923019;-76
2022/11/26 05:01:53;;;;;;;2.28;1.93;;;;;;;5.64;77.74;101195.22;440899;120;922546;-76
2022/11/26 05:02:56;;;;;;;2.15;2.04;;;;;;;5.62;77.68;101196.42;441133;118;922542;-77
2022/11/26 05:03:59;;;;;;;1.99;1.80;;;;;;;5.61;77.78;101203.69;441113;120;922629;-77
2022/11/26 05:05:03;;;;;;;2.24;1.92;;;;;;;5.62;77.69;101197.27;441112;120;922873;-76
2022/11/26 05:06:06;;;;;;;2.26;2.08;;;;;;;5.62;77.78;101196.42;441020;120;922536;-76